Terminal Aerodrome Forecast
Issued by NWS

Home | Current Version | Previous Version | Text Only | Print | Product List | Glossary On
Versions: 1 2 3 4 5 6 7 8 9 10 11 12 13
000
FTUS44 KJAN 011100 RRA
TAFGTR
TAF
KGTR 011154Z 0112/0212 16010KT P6SM -RA SCT030 BKN060 OVC090
     FM011600 18013G22KT P6SM VCSH BKN010 BKN020
      TEMPO 0200/0203 4SM TSRA OVC010CB
     FM020300 30014G24KT P6SM -RA BKN020 BKN030=

USA.gov is the U.S. government's official web portal to all federal, state and local government web resources and services.